Time;durP1;ratioP1;P1;durP2;ratioP2;P2;SDS_P1;SDS_P2;PMS_P1;PMS_P2;Temp;Humidity;BMP_temperature;BMP_pressure;BME280_temperature;BME280_humidity;BME280_pressure;Samples;Min_cycle;Max_cycle;Signal;HPM_P1;HPM_P2
2023/01/01 00:01:49;;;;;;;5.97;2.85;;;16.90;67.20;;;;;;7370914;19;20018;-77
2023/01/01 00:04:20;;;;;;;7.43;2.58;;;16.90;67.30;;;;;;7372324;19;20022;-77
2023/01/01 00:06:49;;;;;;;5.18;2.58;;;17.00;67.50;;;;;;7372941;19;20102;-77
2023/01/01 00:11:59;;;;;;;9.15;2.97;;;16.60;69.40;;;;;;7395082;19;20017;-77
2023/01/01 00:14:28;;;;;;;5.72;2.92;;;16.80;68.40;;;;;;7372370;19;20078;-77
2023/01/01 00:16:58;;;;;;;5.93;2.70;;;17.00;68.10;;;;;;7373153;19;20066;-78
2023/01/01 00:19:29;;;;;;;7.25;3.00;;;16.90;68.30;;;;;;7371552;19;20097;-77
2023/01/01 00:21:58;;;;;;;5.35;2.75;;;16.90;68.50;;;;;;7372048;19;20018;-78
2023/01/01 00:24:27;;;;;;;9.57;3.20;;;17.00;68.60;;;;;;7370521;19;20067;-77
2023/01/01 00:26:55;;;;;;;7.15;2.88;;;16.90;68.70;;;;;;7391374;19;20773;-77
2023/01/01 00:29:24;;;;;;;5.15;2.78;;;16.70;69.20;;;;;;7370413;19;20014;-78
2023/01/01 00:31:53;;;;;;;9.43;3.10;;;16.80;69.40;;;;;;7367789;19;20037;-78
2023/01/01 00:34:21;;;;;;;6.85;2.92;;;16.90;69.50;;;;;;7369178;19;20189;-78
2023/01/01 00:36:53;;;;;;;7.95;3.22;;;16.80;69.20;;;;;;7370457;19;20105;-77
2023/01/01 00:39:21;;;;;;;10.38;3.50;;;16.80;69.50;;;;;;7372288;19;20078;-77
2023/01/01 00:41:50;;;;;;;6.47;3.10;;;16.60;70.20;;;;;;7391604;19;20113;-78
2023/01/01 00:44:19;;;;;;;7.18;2.97;;;16.70;70.20;;;;;;7368741;19;20086;-77
2023/01/01 00:46:47;;;;;;;9.93;3.20;;;16.90;69.90;;;;;;7371146;19;20453;-77
2023/01/01 00:49:16;;;;;;;8.35;3.10;;;17.00;69.70;;;;;;7371697;19;20018;-77
2023/01/01 00:51:45;;;;;;;10.02;3.60;;;16.80;70.20;;;;;;7371096;19;20113;-77
2023/01/01 00:54:16;;;;;;;7.72;3.28;;;16.70;70.00;;;;;;7369603;19;20043;-77
2023/01/01 00:56:45;;;;;;;7.45;3.28;;;16.70;70.40;;;;;;7392509;19;20822;-78
2023/01/01 00:59:13;;;;;;;6.80;2.90;;;16.90;70.30;;;;;;7369241;19;20015;-77
2023/01/01 01:01:42;;;;;;;6.15;2.85;;;16.80;70.30;;;;;;7368709;19;20098;-77
2023/01/01 01:04:11;;;;;;;9.80;3.38;;;16.70;70.40;;;;;;7368332;19;20018;-77
2023/01/01 01:06:40;;;;;;;8.43;3.25;;;16.80;70.60;;;;;;7369448;19;20030;-77
2023/01/01 01:09:08;;;;;;;8.90;3.03;;;16.90;71.10;;;;;;7370289;19;20081;-77
2023/01/01 01:11:39;;;;;;;12.50;3.40;;;17.00;70.40;;;;;;7393839;19;20094;-77
2023/01/01 01:14:08;;;;;;;9.93;4.03;;;16.90;70.50;;;;;;7368548;19;20019;-77
2023/01/01 01:16:37;;;;;;;8.60;3.38;;;17.00;70.40;;;;;;7367086;19;20019;-78
2023/01/01 01:19:12;;;;;;;10.00;3.50;;;17.00;70.70;;;;;;7368465;19;20154;-78
2023/01/01 01:21:41;;;;;;;6.97;2.97;;;16.90;70.80;;;;;;7370703;19;20027;-76
2023/01/01 01:24:11;;;;;;;8.02;3.35;;;16.80;71.00;;;;;;7372294;19;20454;-77
2023/01/01 01:26:42;;;;;;;7.40;3.60;;;16.50;73.10;;;;;;7399467;19;20085;-76
2023/01/01 01:29:11;;;;;;;;;;;16.50;72.20;;;;;;7376703;19;20109;-77
2023/01/01 01:31:40;;;;;;;12.73;3.47;;;16.70;71.90;;;;;;7375830;19;19987;-77
2023/01/01 01:34:08;;;;;;;11.23;3.30;;;16.70;71.70;;;;;;7375291;19;20051;-77
2023/01/01 01:36:37;;;;;;;6.15;3.17;;;16.80;71.70;;;;;;7374915;19;20022;-77
2023/01/01 01:39:06;;;;;;;9.10;3.38;;;16.70;71.80;;;;;;7392275;19;20018;-78
2023/01/01 01:41:35;;;;;;;10.30;3.35;;;16.50;72.40;;;;;;7394674;19;20022;-77
2023/01/01 01:44:24;;;;;;;11.90;3.40;;;16.50;72.80;;;;;;7375358;19;20089;-78
2023/01/01 01:46:53;;;;;;;8.32;3.15;;;16.30;73.40;;;;;;7375993;19;20118;-77
2023/01/01 01:49:29;;;;;;;10.18;3.60;;;16.30;73.80;;;;;;7378068;19;20109;-77
2023/01/01 01:51:58;;;;;;;16.65;3.78;;;16.30;73.80;;;;;;7376061;19;20045;-77
2023/01/01 01:54:30;;;;;;;11.07;3.40;;;16.40;73.60;;;;;;7375402;19;20091;-77
2023/01/01 01:57:04;;;;;;;14.45;3.67;;;16.60;73.20;;;;;;7394765;19;20049;-76
2023/01/01 01:59:39;;;;;;;10.18;3.40;;;16.70;72.90;;;;;;7375038;19;20566;-76
2023/01/01 02:02:23;;;;;;;7.72;3.25;;;16.60;73.30;;;;;;7375004;19;20023;-76
2023/01/01 02:04:52;;;;;;;7.50;3.70;;;16.60;73.20;;;;;;7375988;19;20094;-77
2023/01/01 02:07:24;;;;;;;8.13;3.03;;;16.50;73.70;;;;;;7377131;19;20048;-77
2023/01/01 02:09:52;;;;;;;10.07;3.42;;;16.60;73.40;;;;;;7374959;19;20080;-77
2023/01/01 02:12:24;;;;;;;10.38;3.75;;;16.80;72.90;;;;;;7374107;19;20023;-78
2023/01/01 02:14:56;;;;;;;9.82;3.33;;;16.90;72.90;;;;;;7395640;19;20030;-77
2023/01/01 02:17:31;;;;;;;9.63;3.50;;;16.80;73.00;;;;;;7373608;19;20022;-77
2023/01/01 02:20:30;;;;;;;14.73;4.05;;;16.80;73.20;;;;;;7374481;19;20094;-76
2023/01/01 02:23:21;;;;;;;11.23;3.80;;;16.90;73.20;;;;;;7375501;19;20097;-77
2023/01/01 02:26:02;;;;;;;15.43;3.97;;;16.80;73.50;;;;;;7373142;19;20029;-77
2023/01/01 02:28:48;;;;;;;14.07;4.07;;;16.70;73.50;;;;;;7375622;19;20414;-77
2023/01/01 02:31:21;;;;;;;7.05;3.35;;;16.80;73.50;;;;;;7374037;19;20098;-77
2023/01/01 02:33:50;;;;;;;7.93;3.58;;;16.90;73.30;;;;;;7371676;19;20022;-77
2023/01/01 02:36:21;;;;;;;9.75;3.60;;;16.90;73.20;;;;;;7369910;19;20018;-77
2023/01/01 02:38:53;;;;;;;13.73;3.73;;;16.80;73.20;;;;;;7396408;19;20025;-76
2023/01/01 02:41:27;;;;;;;10.00;3.80;;;16.80;73.60;;;;;;7374456;19;20089;-77
2023/01/01 02:43:59;;;;;;;13.88;3.88;;;16.90;73.70;;;;;;7373562;19;20010;-77
2023/01/01 02:46:33;;;;;;;7.68;3.70;;;16.70;73.60;;;;;;7375282;19;20022;-77
2023/01/01 02:49:02;;;;;;;11.25;3.78;;;16.70;74.10;;;;;;7373161;19;20917;-77
2023/01/01 02:51:42;;;;;;;14.30;4.13;;;16.70;74.10;;;;;;7373416;19;20098;-75
2023/01/01 02:54:19;;;;;;;13.63;3.67;;;16.80;74.10;;;;;;7372604;19;20025;-77
2023/01/01 02:56:53;;;;;;;18.38;4.10;;;16.80;73.90;;;;;;7394337;19;20082;-77
2023/01/01 03:02:26;;;;;;;20.23;4.25;;;16.80;73.80;;;;;;7372395;19;20111;-77
2023/01/01 03:05:07;;;;;;;9.88;3.95;;;16.90;73.70;;;;;;7373084;19;20499;-77
2023/01/01 03:07:48;;;;;;;11.88;3.95;;;16.50;74.80;;;;;;7372463;19;20021;-77
2023/01/01 03:10:20;;;;;;;10.75;3.50;;;16.70;74.80;;;;;;7369409;19;20082;-77
2023/01/01 03:12:57;;;;;;;12.23;3.97;;;16.80;74.50;;;;;;7373155;19;20106;-76
2023/01/01 03:15:32;;;;;;;9.88;3.72;;;16.70;74.50;;;;;;7372304;19;20134;-76
2023/01/01 03:18:06;;;;;;;11.35;3.78;;;16.80;74.70;;;;;;7394469;19;20434;-77
2023/01/01 03:20:38;;;;;;;17.23;4.32;;;16.70;74.80;;;;;;7371062;19;20106;-76
2023/01/01 03:23:11;;;;;;;13.18;4.18;;;16.80;74.80;;;;;;7369464;19;20035;-76
2023/01/01 03:25:47;;;;;;;14.90;3.67;;;16.40;75.50;;;;;;7371482;19;20106;-77
2023/01/01 03:28:19;;;;;;;10.85;3.92;;;16.40;76.20;;;;;;7369540;19;20019;-76
2023/01/01 03:30:54;;;;;;;9.55;3.83;;;16.30;76.50;;;;;;7372405;19;20141;-77
2023/01/01 03:33:27;;;;;;;14.32;4.15;;;16.50;76.00;;;;;;7369938;19;20014;-77
2023/01/01 03:36:00;;;;;;;11.48;3.65;;;16.60;76.00;;;;;;7393249;19;20017;-77
2023/01/01 03:38:33;;;;;;;10.68;3.60;;;16.70;75.70;;;;;;7372050;19;20016;-76
2023/01/01 03:41:05;;;;;;;9.23;3.75;;;16.80;75.10;;;;;;7370459;19;20025;-78
2023/01/01 03:43:41;;;;;;;11.85;4.03;;;16.80;75.30;;;;;;7371412;19;20094;-76
2023/01/01 03:46:14;;;;;;;10.35;3.97;;;16.60;75.50;;;;;;7370572;19;20086;-76
2023/01/01 03:48:59;;;;;;;18.08;3.95;;;16.60;76.00;;;;;;7370462;19;20090;-76
2023/01/01 03:51:34;;;;;;;13.07;3.58;;;16.70;75.70;;;;;;7373845;19;20000;-77
2023/01/01 03:54:09;;;;;;;13.02;4.43;;;16.70;75.60;;;;;;7394652;19;20019;-77
2023/01/01 03:56:44;;;;;;;11.93;3.83;;;16.60;76.10;;;;;;7372554;19;20011;-77
2023/01/01 03:59:18;;;;;;;9.77;4.32;;;16.70;76.10;;;;;;7370351;19;20025;-77
2023/01/01 04:01:52;;;;;;;14.40;4.22;;;16.80;75.90;;;;;;7371462;19;20583;-76
2023/01/01 04:04:22;;;;;;;13.35;3.72;;;16.70;75.80;;;;;;7372578;19;20014;-77
2023/01/01 04:06:51;;;;;;;12.43;3.90;;;16.70;76.00;;;;;;7371074;19;20094;-76
2023/01/01 04:09:23;;;;;;;14.93;3.83;;;16.60;76.40;;;;;;7369433;19;20039;-77
2023/01/01 04:12:04;;;;;;;14.68;3.72;;;16.60;76.60;;;;;;7391290;19;20214;-77
2023/01/01 04:14:35;;;;;;;11.80;4.20;;;16.70;77.30;;;;;;7370551;19;20022;-77
2023/01/01 04:17:08;;;;;;;13.20;4.30;;;16.60;76.80;;;;;;7369964;19;20115;-77
2023/01/01 04:19:37;;;;;;;21.20;3.78;;;16.50;76.90;;;;;;7368733;19;20048;-76
2023/01/01 04:22:08;;;;;;;12.75;4.00;;;16.60;76.90;;;;;;7370216;19;20022;-76
2023/01/01 04:24:36;;;;;;;15.38;3.58;;;16.50;77.00;;;;;;7371491;19;20089;-76
2023/01/01 04:27:05;;;;;;;13.23;3.65;;;16.60;77.10;;;;;;7390549;19;20082;-76
2023/01/01 04:29:35;;;;;;;13.65;3.85;;;16.70;76.80;;;;;;7368948;19;20010;-77
2023/01/01 04:32:06;;;;;;;12.40;4.20;;;16.70;76.70;;;;;;7366621;19;20560;-77
2023/01/01 04:34:35;;;;;;;16.38;4.05;;;16.70;76.80;;;;;;7368239;19;20312;-77
2023/01/01 04:37:04;;;;;;;13.13;4.10;;;16.80;76.70;;;;;;7368643;19;20102;-77
2023/01/01 04:39:32;;;;;;;19.38;3.75;;;16.80;76.70;;;;;;7369007;19;20834;-77
2023/01/01 04:42:01;;;;;;;12.43;4.28;;;16.80;76.60;;;;;;7390077;19;20106;-77
2023/01/01 04:44:30;;;;;;;18.25;3.78;;;16.80;76.80;;;;;;7368580;19;20095;-77
2023/01/01 04:46:58;;;;;;;18.67;3.95;;;16.70;76.90;;;;;;7369580;19;20094;-78
2023/01/01 04:49:30;;;;;;;18.85;4.35;;;16.60;77.20;;;;;;7370072;19;20689;-77
2023/01/01 04:51:59;;;;;;;13.52;3.67;;;16.70;77.50;;;;;;7368074;19;20107;-77
2023/01/01 04:54:27;;;;;;;16.48;4.25;;;16.70;77.30;;;;;;7368307;19;20546;-77
2023/01/01 04:56:56;;;;;;;12.63;4.35;;;16.80;77.30;;;;;;7388251;19;20019;-77
2023/01/01 04:59:25;;;;;;;13.52;4.15;;;16.80;77.30;;;;;;7367022;19;20139;-77
2023/01/01 05:01:54;;;;;;;12.98;4.35;;;16.80;77.20;;;;;;7368066;19;20014;-77
2023/01/01 05:04:22;;;;;;;11.90;3.88;;;16.80;77.20;;;;;;7368538;19;20086;-76
2023/01/01 05:06:54;;;;;;;10.32;3.97;;;16.60;77.40;;;;;;7367221;19;20081;-76
2023/01/01 05:09:22;;;;;;;17.23;3.75;;;16.60;77.70;;;;;;7367843;19;20022;-77
2023/01/01 05:11:51;;;;;;;19.05;4.22;;;16.70;77.70;;;;;;7388012;19;20018;-76
2023/01/01 05:14:20;;;;;;;11.10;3.60;;;16.70;77.60;;;;;;7365417;19;20035;-76
2023/01/01 05:16:48;;;;;;;15.40;3.85;;;16.60;77.90;;;;;;7368567;19;20024;-77
2023/01/01 05:19:17;;;;;;;11.88;4.13;;;16.60;77.90;;;;;;7370444;19;20383;-77
2023/01/01 05:21:47;;;;;;;13.27;4.05;;;16.70;77.90;;;;;;7367702;19;20022;-77
2023/01/01 05:24:18;;;;;;;13.93;3.65;;;16.70;77.90;;;;;;7365740;19;20070;-77
2023/01/01 05:26:47;;;;;;;13.13;3.38;;;16.70;77.80;;;;;;7387038;19;20031;-77
2023/01/01 05:29:16;;;;;;;15.25;4.60;;;16.70;77.90;;;;;;7366593;19;20014;-77
2023/01/01 05:31:44;;;;;;;14.63;4.10;;;16.70;78.00;;;;;;7368892;19;20015;-77
2023/01/01 05:34:13;;;;;;;14.45;3.78;;;16.70;78.20;;;;;;7366582;19;20528;-76
2023/01/01 05:36:42;;;;;;;16.85;3.60;;;16.70;78.20;;;;;;7364916;19;20545;-77
2023/01/01 05:39:13;;;;;;;17.50;4.50;;;16.80;78.10;;;;;;7363880;19;20022;-77
2023/01/01 05:41:44;;;;;;;29.60;4.25;;;16.80;78.30;;;;;;7389842;19;20113;-77
2023/01/01 05:44:15;;;;;;;13.32;3.95;;;16.70;78.30;;;;;;7367559;19;20035;-77
2023/01/01 05:46:44;;;;;;;14.60;4.60;;;16.50;78.60;;;;;;7368602;19;20010;-76
2023/01/01 05:49:13;;;;;;;13.60;3.95;;;16.50;79.50;;;;;;7368131;19;20106;-76
2023/01/01 05:51:42;;;;;;;13.20;4.10;;;16.60;78.70;;;;;;7365783;19;20094;-77
2023/01/01 05:54:12;;;;;;;20.42;4.00;;;16.70;78.60;;;;;;7366938;19;20102;-77
2023/01/01 05:56:43;;;;;;;17.45;4.47;;;16.60;78.80;;;;;;7389118;19;20085;-77
2023/01/01 05:59:12;;;;;;;21.13;4.13;;;16.70;79.50;;;;;;7365855;19;20028;-76
2023/01/01 06:01:41;;;;;;;17.77;4.30;;;16.80;78.60;;;;;;7366335;19;20031;-77
2023/01/01 06:04:09;;;;;;;15.23;3.90;;;16.70;78.50;;;;;;7368552;19;20090;-77
2023/01/01 06:06:38;;;;;;;20.63;4.57;;;16.70;78.80;;;;;;7366157;19;20011;-77
2023/01/01 06:09:07;;;;;;;19.27;3.97;;;16.70;78.70;;;;;;7375735;19;20430;-76
2023/01/01 06:11:36;;;;;;;18.20;4.90;;;16.80;78.60;;;;;;7390803;19;20028;-77
2023/01/01 06:14:07;;;;;;;16.92;4.15;;;16.80;78.60;;;;;;7374268;19;20046;-77
2023/01/01 06:16:36;;;;;;;19.40;4.32;;;16.80;78.50;;;;;;7374267;19;20019;-77
2023/01/01 06:19:05;;;;;;;16.52;4.68;;;16.80;78.50;;;;;;7374640;19;20143;-77
2023/01/01 06:21:34;;;;;;;15.27;3.95;;;16.80;78.60;;;;;;7373722;19;20082;-76
2023/01/01 06:24:03;;;;;;;13.82;4.32;;;16.80;78.60;;;;;;7394588;19;20026;-77
2023/01/01 06:26:34;;;;;;;17.33;3.88;;;16.60;79.80;;;;;;7372780;19;20014;-76
2023/01/01 06:29:03;;;;;;;19.30;4.65;;;16.50;79.70;;;;;;7372365;19;20025;-77
2023/01/01 06:31:35;;;;;;;19.58;4.32;;;16.60;79.50;;;;;;7372920;19;20086;-77
2023/01/01 06:34:03;;;;;;;16.38;4.28;;;16.60;79.50;;;;;;7373937;19;20015;-77
2023/01/01 06:36:32;;;;;;;12.23;3.80;;;16.70;79.40;;;;;;7370965;19;20403;-77
2023/01/01 06:39:02;;;;;;;16.02;4.93;;;16.70;79.20;;;;;;7395186;19;20082;-78
2023/01/01 06:41:31;;;;;;;18.30;4.40;;;16.50;79.60;;;;;;7371861;19;20014;-78
2023/01/01 06:44:00;;;;;;;13.90;4.00;;;16.50;79.70;;;;;;7372715;19;20342;-78
2023/01/01 06:46:31;;;;;;;19.75;4.18;;;16.60;79.60;;;;;;7373033;19;20042;-78
2023/01/01 06:49:04;;;;;;;20.10;4.38;;;16.60;79.60;;;;;;7372185;19;20086;-78
2023/01/01 06:51:35;;;;;;;15.80;4.07;;;16.60;79.50;;;;;;7371003;19;20014;-77
2023/01/01 06:54:05;;;;;;;18.27;4.43;;;16.70;79.40;;;;;;7394659;19;20587;-77
2023/01/01 06:56:35;;;;;;;19.02;4.63;;;16.80;79.20;;;;;;7372551;19;20074;-78
2023/01/01 06:59:04;;;;;;;16.35;3.78;;;16.70;79.20;;;;;;7373326;19;20018;-77
2023/01/01 07:01:35;;;;;;;11.85;3.70;;;16.80;79.30;;;;;;7374856;19;20789;-77
2023/01/01 07:04:09;;;;;;;13.05;4.32;;;16.70;79.30;;;;;;7373018;19;20076;-77
2023/01/01 07:06:38;;;;;;;19.15;4.35;;;16.60;79.70;;;;;;7373730;19;20019;-76
2023/01/01 07:09:08;;;;;;;25.77;4.47;;;16.60;79.60;;;;;;7384792;19;20086;-77
2023/01/01 07:11:37;;;;;;;12.23;4.03;;;16.70;79.70;;;;;;7395544;19;20021;-77
2023/01/01 07:14:06;;;;;;;13.27;3.92;;;16.40;80.10;;;;;;7374280;19;20021;-77
2023/01/01 07:16:35;;;;;;;14.95;3.95;;;16.50;80.20;;;;;;7373483;19;20054;-76
2023/01/01 07:19:06;;;;;;;14.93;4.03;;;16.50;80.00;;;;;;7373391;19;20090;-77
2023/01/01 07:21:42;;;;;;;16.75;4.13;;;16.50;80.20;;;;;;7371473;19;20758;-77
2023/01/01 07:24:12;;;;;;;17.45;3.75;;;16.60;80.20;;;;;;7369374;19;20035;-77
2023/01/01 07:26:42;;;;;;;17.00;3.80;;;16.60;80.10;;;;;;7393135;19;20023;-76
2023/01/01 07:29:11;;;;;;;14.30;3.50;;;16.60;80.10;;;;;;7371491;19;20446;-76
2023/01/01 07:31:41;;;;;;;15.23;3.85;;;16.50;80.20;;;;;;7370266;19;20014;-77
2023/01/01 07:34:15;;;;;;;18.10;3.47;;;16.50;80.70;;;;;;7370829;19;20024;-76
2023/01/01 07:36:44;;;;;;;21.77;4.00;;;16.40;80.90;;;;;;7371608;19;20015;-78
2023/01/01 07:39:13;;;;;;;25.50;4.90;;;16.40;80.90;;;;;;7370629;19;20097;-77
2023/01/01 07:41:42;;;;;;;14.05;3.85;;;16.40;81.10;;;;;;7391009;19;20378;-78
2023/01/01 07:44:10;;;;;;;12.38;3.80;;;16.40;81.30;;;;;;7372998;19;20097;-76
2023/01/01 07:46:39;;;;;;;19.83;3.60;;;16.50;82.60;;;;;;7372057;19;20443;-76
2023/01/01 07:49:08;;;;;;;20.75;3.88;;;16.40;81.60;;;;;;7371002;19;20089;-76
2023/01/01 07:51:39;;;;;;;20.35;4.25;;;16.50;81.60;;;;;;7372423;19;20030;-77
2023/01/01 07:54:08;;;;;;;20.48;4.00;;;16.60;81.40;;;;;;7372055;19;20094;-78
2023/01/01 07:56:41;;;;;;;16.10;3.97;;;16.60;81.30;;;;;;7391110;19;20021;-78
2023/01/01 07:59:09;;;;;;;18.27;3.50;;;16.70;81.20;;;;;;7371735;19;20106;-76
2023/01/01 08:01:39;;;;;;;15.60;3.65;;;16.60;80.90;;;;;;7369768;19;20090;-76
2023/01/01 08:04:08;;;;;;;18.73;4.50;;;16.30;81.20;;;;;;7372343;19;20027;-77
2023/01/01 08:06:39;;;;;;;16.50;3.53;;;16.30;81.90;;;;;;7369423;19;20094;-77
2023/01/01 08:09:08;;;;;;;25.52;4.20;;;16.30;82.10;;;;;;7368635;19;20014;-77
2023/01/01 08:11:37;;;;;;;47.97;5.18;;;16.30;82.40;;;;;;7391567;19;20085;-77
2023/01/01 08:14:05;;;;;;;14.65;4.18;;;16.30;82.30;;;;;;7371099;19;20018;-77
2023/01/01 08:16:34;;;;;;;14.80;3.78;;;16.40;82.50;;;;;;7371384;19;20021;-78
2023/01/01 08:19:03;;;;;;;19.23;4.10;;;16.30;81.60;;;;;;7373543;19;20212;-77
2023/01/01 08:21:32;;;;;;;14.32;4.30;;;16.40;81.90;;;;;;7372447;19;20014;-76
2023/01/01 08:24:03;;;;;;;19.88;4.20;;;16.40;81.70;;;;;;7391266;19;20018;-77
2023/01/01 08:26:34;;;;;;;27.67;4.47;;;16.40;81.50;;;;;;7371127;19;20453;-76
2023/01/01 08:29:05;;;;;;;16.77;3.70;;;16.20;81.80;;;;;;7370083;19;20082;-77
2023/01/01 08:31:34;;;;;;;19.30;4.10;;;16.30;81.60;;;;;;7369920;19;20121;-77
2023/01/01 08:34:03;;;;;;;21.02;3.70;;;16.40;81.50;;;;;;7366520;19;20547;-77
2023/01/01 08:36:32;;;;;;;13.48;3.83;;;16.50;81.40;;;;;;7369754;19;20010;-78
2023/01/01 08:39:03;;;;;;;22.33;4.57;;;16.50;81.60;;;;;;7390842;19;20346;-78
2023/01/01 08:41:32;;;;;;;17.08;4.05;;;16.60;81.00;;;;;;7368875;19;20093;-77
2023/01/01 08:44:01;;;;;;;12.70;3.80;;;16.60;81.00;;;;;;7370732;19;20090;-77
2023/01/01 08:46:29;;;;;;;16.48;4.07;;;16.60;81.00;;;;;;7368747;19;20384;-78
2023/01/01 08:48:58;;;;;;;15.13;4.18;;;16.70;80.80;;;;;;7370311;19;20015;-78
2023/01/01 08:51:27;;;;;;;18.58;4.25;;;16.70;80.80;;;;;;7371525;19;20433;-78
2023/01/01 08:53:56;;;;;;;21.85;4.03;;;16.70;80.90;;;;;;7390836;19;20114;-77
2023/01/01 08:56:27;;;;;;;18.05;3.92;;;16.70;80.90;;;;;;7368882;19;20029;-77
2023/01/01 08:58:56;;;;;;;;;;;16.70;81.00;;;;;;7370813;19;20022;-79
2023/01/01 09:01:26;;;;;;;16.17;4.10;;;16.80;81.00;;;;;;7370822;19;19960;-77
2023/01/01 09:03:55;;;;;;;22.33;4.30;;;16.60;80.80;;;;;;7369899;19;20392;-77
2023/01/01 09:06:24;;;;;;;16.95;4.35;;;16.60;81.10;;;;;;7367261;19;20070;-76
2023/01/01 09:08:52;;;;;;;16.65;3.97;;;16.50;81.30;;;;;;7391056;19;20068;-77
2023/01/01 09:11:25;;;;;;;24.65;3.92;;;16.50;81.80;;;;;;7368465;19;20015;-78
2023/01/01 09:13:56;;;;;;;21.15;4.38;;;16.50;81.40;;;;;;7367017;19;20015;-77
2023/01/01 09:16:25;;;;;;;;;;;16.60;81.40;;;;;;7370259;19;20023;-77
2023/01/01 09:18:53;;;;;;;21.30;4.35;;;16.50;82.20;;;;;;7369376;19;19927;-77
2023/01/01 09:21:22;;;;;;;15.32;4.55;;;16.50;81.80;;;;;;7367539;19;20090;-76
2023/01/01 09:23:51;;;;;;;24.45;4.25;;;16.50;82.00;;;;;;7390220;19;20030;-77
2023/01/01 09:26:20;;;;;;;15.25;3.72;;;16.50;81.90;;;;;;7368488;19;20118;-77
2023/01/01 09:28:48;;;;;;;17.80;4.07;;;16.60;81.60;;;;;;7368355;19;20689;-78
2023/01/01 09:31:19;;;;;;;21.98;4.47;;;16.60;81.50;;;;;;7367680;19;20130;-77
2023/01/01 09:33:48;;;;;;;16.40;4.38;;;16.70;81.30;;;;;;7369348;19;20021;-77
2023/01/01 09:36:28;;;;;;;14.15;3.83;;;16.80;81.10;;;;;;7367233;19;20123;-77
2023/01/01 09:38:57;;;;;;;19.20;3.97;;;16.90;80.90;;;;;;7389867;19;20399;-77
2023/01/01 09:41:38;;;;;;;19.23;4.10;;;16.90;80.90;;;;;;7369188;19;20744;-77
2023/01/01 09:44:17;;;;;;;13.98;4.30;;;16.70;81.10;;;;;;7365413;19;20447;-77
2023/01/01 09:46:48;;;;;;;17.40;4.43;;;16.80;81.10;;;;;;7375180;19;20090;-77
2023/01/01 09:49:23;;;;;;;14.65;4.18;;;16.90;81.00;;;;;;7373298;19;20021;-77
2023/01/01 09:52:00;;;;;;;20.55;4.47;;;17.00;81.00;;;;;;7375467;19;20093;-77
2023/01/01 09:54:32;;;;;;;22.60;4.20;;;17.00;80.80;;;;;;7376916;19;20026;-77
2023/01/01 09:57:03;;;;;;;19.60;4.25;;;17.10;80.70;;;;;;7398148;19;20018;-77
2023/01/01 09:59:32;;;;;;;18.20;3.75;;;17.10;80.40;;;;;;7376600;19;20021;-77
2023/01/01 10:02:15;;;;;;;14.40;3.55;;;17.20;80.30;;;;;;7376295;19;20014;-77
2023/01/01 10:04:58;;;;;;;13.48;3.72;;;17.10;80.20;;;;;;7376246;19;20014;-77
2023/01/01 10:07:36;;;;;;;17.23;4.22;;;17.20;80.20;;;;;;7375075;19;20022;-77
2023/01/01 10:10:17;;;;;;;16.25;4.47;;;17.20;80.10;;;;;;7375714;19;20591;-78
2023/01/01 10:12:49;;;;;;;;;;;17.10;80.10;;;;;;7375692;19;20006;-78
2023/01/01 10:15:23;;;;;;;14.13;3.95;;;17.30;80.30;;;;;;7374782;19;19974;-77
2023/01/01 10:17:59;;;;;;;16.00;4.32;;;17.20;80.00;;;;;;7398591;19;20036;-77
2023/01/01 10:20:33;;;;;;;18.48;4.50;;;17.20;80.00;;;;;;7375604;19;20054;-76
2023/01/01 10:23:09;;;;;;;21.23;4.47;;;17.20;79.80;;;;;;7374194;19;20110;-76
2023/01/01 10:25:38;;;;;;;16.90;4.25;;;17.20;80.00;;;;;;7373946;19;20403;-76
2023/01/01 10:28:12;;;;;;;19.13;4.57;;;17.20;79.70;;;;;;7373526;19;20836;-77
2023/01/01 10:30:43;;;;;;;11.65;4.57;;;17.20;79.70;;;;;;7372476;19;20039;-76
2023/01/01 10:33:15;;;;;;;19.35;4.68;;;17.20;80.00;;;;;;7375207;19;20029;-77
2023/01/01 10:35:47;;;;;;;12.52;4.38;;;17.00;80.00;;;;;;7396197;19;20097;-77
2023/01/01 10:38:24;;;;;;;16.98;4.55;;;17.10;80.50;;;;;;7373731;19;20398;-77
2023/01/01 10:40:54;;;;;;;14.98;4.43;;;17.00;80.40;;;;;;7360292;19;20461;-77
2023/01/01 10:43:23;;;;;;;15.30;4.35;;;17.00;80.20;;;;;;7374261;19;20014;-77
2023/01/01 10:45:55;;;;;;;14.82;4.10;;;17.10;80.20;;;;;;7375753;19;20022;-76
2023/01/01 10:48:32;;;;;;;17.63;4.78;;;17.10;80.40;;;;;;7377254;19;20039;-75
2023/01/01 10:51:03;;;;;;;14.60;4.57;;;17.10;80.00;;;;;;7394819;19;20126;-77
2023/01/01 10:53:35;;;;;;;19.92;4.38;;;17.00;80.00;;;;;;7373407;19;20081;-76
2023/01/01 10:56:09;;;;;;;15.50;4.68;;;16.90;80.00;;;;;;7370934;19;20085;-77
2023/01/01 10:58:44;;;;;;;21.40;4.75;;;16.90;80.80;;;;;;7372301;19;20097;-76
2023/01/01 11:01:19;;;;;;;16.70;4.43;;;16.90;81.00;;;;;;7374758;19;20074;-76
2023/01/01 11:04:01;;;;;;;14.25;3.83;;;17.00;81.10;;;;;;7373826;19;20454;-80
2023/01/01 11:06:34;;;;;;;18.67;4.88;;;17.00;81.00;;;;;;7375726;19;20007;-80
2023/01/01 11:09:06;;;;;;;20.33;4.20;;;17.00;80.80;;;;;;7396178;19;20090;-79
2023/01/01 11:11:42;;;;;;;15.25;4.68;;;17.00;81.30;;;;;;7372921;19;20031;-77
2023/01/01 11:14:22;;;;;;;26.10;5.50;;;17.00;81.30;;;;;;7373317;19;20007;-75
2023/01/01 11:16:51;;;;;;;21.75;5.85;;;17.00;81.20;;;;;;7369941;19;20019;-75
2023/01/01 11:19:30;;;;;;;15.60;4.43;;;17.00;81.30;;;;;;7374011;19;20031;-75
2023/01/01 11:22:00;;;;;;;14.20;3.97;;;17.00;81.40;;;;;;7373776;19;20479;-75
2023/01/01 11:24:30;;;;;;;14.45;4.15;;;16.90;81.30;;;;;;7372114;19;20051;-75
2023/01/01 11:27:19;;;;;;;11.93;4.28;;;17.00;81.60;;;;;;7395040;19;20039;-77
2023/01/01 11:29:50;;;;;;;17.10;4.63;;;17.00;81.90;;;;;;7372571;19;20475;-77
2023/01/01 11:32:23;;;;;;;21.58;4.60;;;17.10;82.00;;;;;;7372438;19;20018;-77
2023/01/01 11:35:00;;;;;;;13.70;4.43;;;17.10;82.20;;;;;;7372086;19;20039;-76
2023/01/01 11:37:32;;;;;;;16.67;4.55;;;17.10;82.10;;;;;;7372004;19;20018;-76
2023/01/01 11:40:03;;;;;;;22.70;5.15;;;17.20;82.30;;;;;;7371101;19;20025;-77
2023/01/01 11:42:35;;;;;;;12.73;4.20;;;17.20;82.20;;;;;;7373019;19;20437;-75
2023/01/01 11:45:07;;;;;;;17.88;4.45;;;17.20;82.00;;;;;;7392005;19;20044;-76
2023/01/01 11:47:40;;;;;;;12.32;3.95;;;17.20;82.20;;;;;;7371546;19;20383;-75
2023/01/01 11:50:23;;;;;;;13.55;3.90;;;17.20;82.40;;;;;;7371031;19;20039;-76
2023/01/01 11:52:54;;;;;;;13.80;3.92;;;17.10;82.20;;;;;;7393470;19;20011;-77
2023/01/01 11:55:30;;;;;;;11.10;4.15;;;17.10;82.20;;;;;;7364010;19;20088;-77
2023/01/01 11:58:04;;;;;;;17.48;4.35;;;17.10;81.90;;;;;;7390185;19;20047;-76
2023/01/01 12:00:38;;;;;;;14.82;3.95;;;17.10;81.70;;;;;;7368708;19;20018;-76
2023/01/01 12:03:19;;;;;;;12.20;4.20;;;17.00;81.70;;;;;;7368760;19;20019;-77
2023/01/01 12:05:57;;;;;;;17.45;4.55;;;17.00;81.70;;;;;;7369189;19;20039;-76
2023/01/01 12:08:35;;;;;;;14.20;4.30;;;16.90;81.70;;;;;;7368010;19;20027;-76
2023/01/01 12:11:14;;;;;;;13.52;5.00;;;17.00;82.00;;;;;;7369130;19;20043;-77
2023/01/01 12:13:51;;;;;;;15.35;4.38;;;17.00;82.20;;;;;;7371351;19;20331;-76
2023/01/01 12:16:25;;;;;;;16.35;5.10;;;17.00;82.20;;;;;;7392969;19;20081;-77
2023/01/01 12:19:03;;;;;;;15.57;4.50;;;17.00;82.10;;;;;;7372076;19;20045;-76
2023/01/01 12:21:37;;;;;;;21.92;5.03;;;17.00;82.20;;;;;;7372188;19;20404;-76
2023/01/01 12:24:12;;;;;;;17.85;4.72;;;17.00;82.20;;;;;;7372257;19;20010;-76
2023/01/01 12:26:55;;;;;;;17.02;4.05;;;17.00;82.30;;;;;;7368378;19;20026;-77
2023/01/01 12:29:53;;;;;;;15.32;4.93;;;17.00;82.30;;;;;;7369361;19;20019;-77
2023/01/01 12:32:29;;;;;;;17.25;5.00;;;17.00;82.50;;;;;;7369832;19;20044;-78
2023/01/01 12:35:06;;;;;;;21.00;5.10;;;17.00;82.30;;;;;;7368771;19;20014;-78
2023/01/01 12:37:52;;;;;;;13.80;4.43;;;17.00;82.50;;;;;;7365265;19;20073;-78
2023/01/01 12:40:40;;;;;;;18.02;4.60;;;17.00;82.90;;;;;;7382119;19;20011;-78
2023/01/01 12:43:13;;;;;;;18.35;5.63;;;17.00;83.00;;;;;;7394275;19;20014;-78
2023/01/01 12:46:03;;;;;;;13.75;5.20;;;17.10;83.20;;;;;;7369198;19;20038;-79
2023/01/01 12:48:56;;;;;;;15.88;5.07;;;17.10;83.50;;;;;;7370387;19;20946;-77
2023/01/01 12:51:36;;;;;;;15.25;5.85;;;17.10;83.80;;;;;;7368407;19;20105;-77
2023/01/01 12:54:33;;;;;;;18.63;6.10;;;17.10;84.10;;;;;;7368903;19;20687;-76
2023/01/01 12:57:12;;;;;;;22.60;6.35;;;17.00;84.50;;;;;;7367136;19;20098;-78
2023/01/01 12:59:44;;;;;;;18.70;6.38;;;17.00;84.70;;;;;;7369759;19;20121;-78
2023/01/01 13:02:20;;;;;;;16.38;7.30;;;17.00;85.10;;;;;;7369155;19;20014;-78
2023/01/01 13:04:50;;;;;;;15.50;7.43;;;17.00;86.10;;;;;;7366676;19;20065;-76
2023/01/01 13:07:27;;;;;;;14.57;6.43;;;17.00;85.70;;;;;;7387357;19;20125;-76
2023/01/01 13:10:08;;;;;;;16.05;6.55;;;17.00;86.10;;;;;;7366450;19;20095;-77
2023/01/01 13:12:38;;;;;;;18.63;6.85;;;17.00;86.30;;;;;;7368405;19;20389;-76